首页
METAR-TAF:

METAR-TAF

机场 :

Vero Beach Municipal Airport

Vero Beach, 佛罗里达州, 美国

纬度: 27-39-20N, 经度: 080-25-05W, 海拔: 7米

当前天气观测

该预报发布于1小时和2分钟前的14:53 UTC
风速3节,风向西
温度 28°C
湿度 74%
气压 1016 hPa
能見度: 16.1公里
散云层高于2000英尺
多云层高于2900英尺

METAR: KVRB 241453Z 27003KT 10SM SCT020 BKN029 28/23 A3000 RMK AO2 SLP156 T02830233 50000

时间: 11:55 (15:55 UTC)

预报

该预报发布于4小时和31分钟前的11:24 UTC
预报有效从24日的 12点(UTC)到 25日的 12点(UTC)
风速4节,风向西南
能見度: 10公里
散云层高于2500英尺
多云层高于10000英尺
从 24日的 1600点(UTC)
风速9节,风向东转东南
能見度: 10公里
散云层高于4000英尺, 积雨云.
散云层高于12000英尺
附近有雷暴
从 24日的 2100点(UTC)
风速9节,风向东南
能見度: 10公里
散云层高于3000英尺
散云层高于6000英尺
从 25日的 0100点(UTC)
风速5节,风向南转南东
能見度: 10公里
少量云层高于3000英尺
散云层高于10000英尺
从 25日的 0600点(UTC)
风速3节,风向南转西南
能見度: 10公里
散云层高于10000英尺

TAF: KVRB 241124Z 2412/2512 22004KT P6SM SCT025 BKN100 FM241600 11009KT P6SM VCTS SCT040CB SCT120 FM242100 14009KT P6SM SCT030 SCT060 FM250100 16005KT P6SM FEW030 SCT100 FM250600 21003KT P6SM SCT100

超过4000个机场的气象观测和天气预报(METAR&TAF报告)。

可查询的气象台以黄色和红色小点在地图上表示。

将鼠标移到小点上方,可查看气象台名称。

然后点击查看天气观测和预报。

如需切换地图:点击带黑十字的绿色按钮放大地图;点击带横线的绿色按钮缩小地图;或者点击绿色箭头查看邻近地区的地图。


METAR-TAF: